createdAt,value
2018-04-08T00:02:07.072Z,13.40
2018-04-08T00:04:34.667Z,13.40
2018-04-08T00:07:02.242Z,13.40
2018-04-08T00:09:29.831Z,13.40
2018-04-08T00:11:57.381Z,13.40
2018-04-08T00:14:25.047Z,13.30
2018-04-08T00:16:52.885Z,13.30
2018-04-08T00:19:20.499Z,13.30
2018-04-08T00:21:48.814Z,13.20
2018-04-08T00:24:16.400Z,13.20
2018-04-08T00:26:44.044Z,13.20
2018-04-08T00:29:11.639Z,13.20
2018-04-08T00:31:39.265Z,13.20
2018-04-08T00:34:06.833Z,13.10
2018-04-08T00:36:34.367Z,13.10
2018-04-08T00:39:01.970Z,13.10
2018-04-08T00:41:29.509Z,13.00
2018-04-08T00:43:57.112Z,13.00
2018-04-08T00:46:24.674Z,12.90
2018-04-08T00:48:52.226Z,12.80
2018-04-08T00:51:19.811Z,12.80
2018-04-08T00:53:48.174Z,12.60
2018-04-08T00:56:15.738Z,12.60
2018-04-08T00:58:43.277Z,12.60
2018-04-08T01:01:10.953Z,12.50
2018-04-08T01:03:38.497Z,12.40
2018-04-08T01:06:06.095Z,12.40
2018-04-08T01:08:34.448Z,12.30
2018-04-08T01:11:02.024Z,12.30
2018-04-08T01:13:30.352Z,12.30
2018-04-08T01:15:57.934Z,12.20
2018-04-08T01:18:26.295Z,12.20
2018-04-08T01:20:53.850Z,12.20
2018-04-08T01:23:21.469Z,12.10
2018-04-08T01:25:49.809Z,12.00
2018-04-08T01:28:17.373Z,12.00
2018-04-08T01:30:44.963Z,12.00
2018-04-08T01:33:12.528Z,11.90
2018-04-08T01:35:40.873Z,11.80
2018-04-08T01:38:08.413Z,11.80
2018-04-08T01:40:35.993Z,11.80
2018-04-08T01:43:03.556Z,11.80
2018-04-08T01:45:31.146Z,11.70
2018-04-08T01:47:58.749Z,11.70
2018-04-08T01:50:26.295Z,11.70
2018-04-08T01:52:53.876Z,11.60
2018-04-08T01:55:21.435Z,11.60
2018-04-08T01:57:49.004Z,11.50
2018-04-08T02:00:16.564Z,11.50
2018-04-08T02:02:44.141Z,11.50
2018-04-08T02:05:11.690Z,11.50
2018-04-08T02:07:39.266Z,11.40
2018-04-08T02:10:08.309Z,11.40
2018-04-08T02:12:35.864Z,11.40
2018-04-08T02:15:04.185Z,11.40
2018-04-08T02:17:31.733Z,11.40
2018-04-08T02:19:59.311Z,11.40
2018-04-08T02:22:26.933Z,11.40
2018-04-08T02:24:54.515Z,11.40
2018-04-08T02:27:22.078Z,11.40
2018-04-08T02:29:49.636Z,11.50
2018-04-08T02:32:17.189Z,11.50
2018-04-08T02:34:44.752Z,11.50
2018-04-08T02:37:12.315Z,11.60
2018-04-08T02:39:39.868Z,11.60
2018-04-08T02:42:07.442Z,11.60
2018-04-08T02:44:34.985Z,11.60
2018-04-08T02:47:02.578Z,11.70
2018-04-08T02:49:30.120Z,11.80
2018-04-08T02:51:57.702Z,11.80
2018-04-08T02:54:25.266Z,11.90
2018-04-08T02:56:53.246Z,11.90
2018-04-08T02:59:22.341Z,12.00
2018-04-08T03:01:50.681Z,12.00
2018-04-08T03:04:18.242Z,12.00
2018-04-08T03:06:45.823Z,12.10
2018-04-08T03:09:13.411Z,12.10
2018-04-08T03:11:41.737Z,12.10
2018-04-08T03:14:09.288Z,12.10
2018-04-08T03:16:36.844Z,12.10
2018-04-08T03:19:04.410Z,12.20
2018-04-08T03:21:32.981Z,12.20
2018-04-08T03:24:00.550Z,12.10
2018-04-08T03:26:28.114Z,12.10
2018-04-08T03:28:55.686Z,12.10
2018-04-08T03:31:23.248Z,12.10
2018-04-08T03:33:50.813Z,12.10
2018-04-08T03:36:18.392Z,12.10
2018-04-08T03:38:45.993Z,12.10
2018-04-08T03:41:13.549Z,12.10
2018-04-08T03:43:41.134Z,12.00
2018-04-08T03:46:08.684Z,11.90
2018-04-08T03:48:36.252Z,11.90
2018-04-08T03:51:03.809Z,11.80
2018-04-08T03:53:31.406Z,11.80
2018-04-08T03:55:58.968Z,11.70
2018-04-08T03:58:26.554Z,11.70
2018-04-08T04:00:54.885Z,11.60
2018-04-08T04:03:22.493Z,11.60
2018-04-08T04:05:50.182Z,11.60
2018-04-08T04:08:17.773Z,11.50
2018-04-08T04:10:45.384Z,11.50
2018-04-08T04:13:12.957Z,11.50
2018-04-08T04:15:40.621Z,11.50
2018-04-08T04:18:20.023Z,11.50
2018-04-08T04:21:00.240Z,11.40
2018-04-08T04:26:32.841Z,11.40
2018-04-08T04:29:00.400Z,11.40
2018-04-08T04:31:27.964Z,11.40
2018-04-08T04:33:55.521Z,11.50
2018-04-08T04:36:23.872Z,11.50
2018-04-08T04:38:51.466Z,11.50
2018-04-08T04:41:19.025Z,11.50
2018-04-08T04:43:46.633Z,11.40
2018-04-08T04:46:15.120Z,11.40
2018-04-08T04:48:43.424Z,11.30
2018-04-08T04:51:11.004Z,11.20
2018-04-08T04:53:38.558Z,11.20
2018-04-08T04:56:06.120Z,11.20
2018-04-08T04:58:34.592Z,11.10
2018-04-08T05:01:02.153Z,11.10
2018-04-08T05:03:29.709Z,11.10
2018-04-08T05:05:57.264Z,11.10
2018-04-08T05:08:24.836Z,11.10
2018-04-08T05:10:52.409Z,11.20
2018-04-08T05:13:19.972Z,11.20
2018-04-08T05:15:47.540Z,11.20
2018-04-08T05:18:15.104Z,11.20
2018-04-08T05:20:42.652Z,11.20
2018-04-08T05:23:10.239Z,11.20
2018-04-08T05:25:37.779Z,11.30
2018-04-08T05:28:05.364Z,11.30
2018-04-08T05:30:33.680Z,11.50
2018-04-08T05:33:01.302Z,11.50
2018-04-08T05:35:29.614Z,11.70
2018-04-08T05:37:57.165Z,11.60
2018-04-08T05:40:24.723Z,11.70
2018-04-08T05:42:52.269Z,11.80
2018-04-08T05:45:20.593Z,11.90
2018-04-08T05:47:48.189Z,11.90
2018-04-08T05:50:15.725Z,12.00
2018-04-08T05:52:43.273Z,12.10
2018-04-08T05:55:10.836Z,12.20
2018-04-08T05:57:38.404Z,12.30
2018-04-08T06:00:06.117Z,12.30
2018-04-08T06:02:33.678Z,12.50
2018-04-08T06:05:01.260Z,12.60
2018-04-08T06:07:28.841Z,12.80
2018-04-08T06:09:56.393Z,12.90
2018-04-08T06:12:23.945Z,13.00
2018-04-08T06:14:51.596Z,13.20
2018-04-08T06:17:19.154Z,13.40
2018-04-08T06:19:46.749Z,13.50
2018-04-08T06:22:14.329Z,13.60
2018-04-08T06:24:41.889Z,13.70
2018-04-08T06:27:10.309Z,14.00
2018-04-08T06:29:37.889Z,14.00
2018-04-08T06:32:05.620Z,14.10
2018-04-08T06:34:33.181Z,14.30
2018-04-08T06:37:00.869Z,14.40
2018-04-08T06:39:28.446Z,14.50
2018-04-08T06:41:56.010Z,14.60
2018-04-08T06:44:23.595Z,14.70
2018-04-08T06:46:51.165Z,14.90
2018-04-08T06:49:19.547Z,15.20
2018-04-08T06:51:47.228Z,15.20
2018-04-08T06:54:14.799Z,15.40
2018-04-08T06:56:42.455Z,15.50
2018-04-08T06:59:10.022Z,15.60
2018-04-08T07:01:37.588Z,15.80
2018-04-08T07:04:05.150Z,15.90
2018-04-08T07:06:32.697Z,16.10
2018-04-08T07:09:00.476Z,16.30
2018-04-08T07:11:28.025Z,16.50
2018-04-08T07:13:55.673Z,16.60
2018-04-08T07:16:23.257Z,16.90
2018-04-08T07:18:50.848Z,17.00
2018-04-08T07:21:18.393Z,17.00
2018-04-08T07:23:45.970Z,17.20
2018-04-08T07:26:14.453Z,17.50
2018-04-08T07:28:42.030Z,17.50
2018-04-08T07:31:09.582Z,17.60
2018-04-08T07:33:37.141Z,17.70
2018-04-08T07:36:05.578Z,17.90
2018-04-08T07:38:33.149Z,17.80
2018-04-08T07:41:00.727Z,17.90
2018-04-08T07:43:28.326Z,17.90
2018-04-08T07:45:56.771Z,18.00
2018-04-08T07:48:24.355Z,18.00
2018-04-08T07:50:51.913Z,18.00
2018-04-08T07:53:20.249Z,18.10
2018-04-08T07:55:47.817Z,18.10
2018-04-08T07:58:15.373Z,18.00
2018-04-08T08:00:42.941Z,18.00
2018-04-08T08:03:10.589Z,18.00
2018-04-08T08:05:38.187Z,18.00
2018-04-08T08:08:05.781Z,18.00
2018-04-08T08:10:33.367Z,18.00
2018-04-08T08:13:00.926Z,17.90
2018-04-08T08:15:28.853Z,17.90
2018-04-08T08:17:57.180Z,18.00
2018-04-08T08:20:24.733Z,18.00
2018-04-08T08:22:52.298Z,18.00
2018-04-08T08:25:19.855Z,18.10
2018-04-08T08:27:47.429Z,18.20
2018-04-08T08:30:14.981Z,18.20
2018-04-08T08:32:42.578Z,18.40
2018-04-08T08:35:10.909Z,18.50
2018-04-08T08:37:38.537Z,18.50
2018-04-08T08:40:06.909Z,18.60
2018-04-08T08:42:35.265Z,18.70
2018-04-08T08:45:02.817Z,18.70
2018-04-08T08:47:30.386Z,18.90
2018-04-08T08:49:57.964Z,18.90
2018-04-08T08:52:26.315Z,19.20
2018-04-08T08:54:53.911Z,19.20
2018-04-08T08:57:21.464Z,19.30
2018-04-08T08:59:49.876Z,19.50
2018-04-08T09:02:17.866Z,19.50
2018-04-08T09:04:45.674Z,19.40
2018-04-08T09:07:14.029Z,19.60
2018-04-08T09:09:41.612Z,19.60
2018-04-08T09:12:09.940Z,19.60
2018-04-08T09:37:32.704Z,20.10
2018-04-08T09:40:00.298Z,20.20
2018-04-08T09:42:27.862Z,20.50
2018-04-08T09:44:55.475Z,20.70
2018-04-08T09:47:23.069Z,21.10
2018-04-08T09:49:50.811Z,21.30
2018-04-08T09:52:18.569Z,21.60
2018-04-08T09:54:46.122Z,21.70
2018-04-08T09:57:13.694Z,21.60
2018-04-08T09:59:41.263Z,21.40
2018-04-08T10:02:14.353Z,21.40
2018-04-08T10:04:41.948Z,21.30
2018-04-08T10:07:09.492Z,21.10
2018-04-08T10:09:37.050Z,21.20
2018-04-08T10:12:04.649Z,21.20
2018-04-08T10:14:32.259Z,21.30
2018-04-08T10:16:59.968Z,21.30
2018-04-08T10:19:28.314Z,21.70
2018-04-08T10:21:55.846Z,21.70
2018-04-08T10:24:23.457Z,21.90
2018-04-08T10:26:51.960Z,21.90
2018-04-08T10:29:19.576Z,21.80
2018-04-08T10:31:47.087Z,21.80
2018-04-08T10:34:15.539Z,21.80
2018-04-08T10:36:44.889Z,21.90
2018-04-08T10:39:12.485Z,21.90
2018-04-08T10:41:41.427Z,21.80
2018-04-08T10:44:09.002Z,21.70
2018-04-08T10:46:36.599Z,21.70
2018-04-08T10:49:04.172Z,21.80
2018-04-08T10:51:31.723Z,21.70
2018-04-08T10:54:01.531Z,21.70
2018-04-08T10:56:29.090Z,21.80
2018-04-08T10:58:56.655Z,21.70
2018-04-08T11:01:25.041Z,21.90
2018-04-08T11:03:52.612Z,21.80
2018-04-08T11:06:20.949Z,22.10
2018-04-08T11:08:48.492Z,22.10
2018-04-08T11:11:16.062Z,22.20
2018-04-08T11:13:43.639Z,22.30
2018-04-08T11:16:11.341Z,22.20
2018-04-08T11:18:39.710Z,22.10
2018-04-08T11:21:08.782Z,22.30
2018-04-08T11:23:36.340Z,22.30
2018-04-08T11:26:03.926Z,22.40
2018-04-08T11:28:32.289Z,22.20
2018-04-08T11:30:59.884Z,22.20
2018-04-08T11:33:28.234Z,22.40
2018-04-08T11:35:56.729Z,22.40
2018-04-08T11:38:25.137Z,22.60
2018-04-08T11:40:52.721Z,22.50
2018-04-08T11:43:20.682Z,22.50
2018-04-08T11:45:48.198Z,22.60
2018-04-08T11:48:16.562Z,22.70
2018-04-08T11:50:44.201Z,22.70
2018-04-08T11:53:11.932Z,22.80
2018-04-08T11:55:39.512Z,23.00
2018-04-08T11:58:07.086Z,23.10
2018-04-08T12:00:34.650Z,23.40
2018-04-08T12:03:02.242Z,23.60
2018-04-08T12:05:30.589Z,23.70
2018-04-08T12:07:58.150Z,23.60
2018-04-08T12:10:25.705Z,23.70
2018-04-08T12:12:53.342Z,23.80
2018-04-08T12:15:20.920Z,24.00
2018-04-08T12:17:48.531Z,24.00
2018-04-08T12:20:16.885Z,24.10
2018-04-08T12:22:44.433Z,24.00
2018-04-08T12:25:12.065Z,24.10
2018-04-08T12:27:39.716Z,24.10
2018-04-08T12:30:07.304Z,24.20
2018-04-08T12:32:34.869Z,24.20
2018-04-08T12:35:02.421Z,24.10
2018-04-08T12:37:30.118Z,24.10
2018-04-08T12:39:57.709Z,24.10
2018-04-08T12:42:25.384Z,24.30
2018-04-08T12:44:52.950Z,24.40
2018-04-08T12:47:20.530Z,24.50
2018-04-08T12:49:48.096Z,24.50
2018-04-08T12:52:15.675Z,24.60
2018-04-08T12:54:43.249Z,24.30
2018-04-08T12:57:11.592Z,24.20
2018-04-08T12:59:39.156Z,24.10
2018-04-08T13:02:06.728Z,24.20
2018-04-08T13:04:35.809Z,23.90
2018-04-08T13:07:03.417Z,23.90
2018-04-08T13:09:31.817Z,23.80
2018-04-08T13:11:59.366Z,23.80
2018-04-08T13:14:27.039Z,23.80
2018-04-08T13:16:54.628Z,23.90
2018-04-08T13:19:22.177Z,24.00
2018-04-08T13:21:50.738Z,24.10
2018-04-08T13:24:18.313Z,24.10
2018-04-08T13:26:45.860Z,24.20
2018-04-08T13:29:13.536Z,24.30
2018-04-08T13:31:41.092Z,24.20
2018-04-08T13:34:08.665Z,24.20
2018-04-08T13:36:36.225Z,24.10
2018-04-08T13:39:03.806Z,24.20
2018-04-08T13:41:31.364Z,24.20
2018-04-08T13:43:59.093Z,24.20
2018-04-08T13:46:26.681Z,24.40
2018-04-08T13:48:54.232Z,24.40
2018-04-08T13:51:21.817Z,24.70
2018-04-08T13:53:49.422Z,24.90
2018-04-08T13:56:17.016Z,24.80
2018-04-08T13:58:44.552Z,24.70
2018-04-08T14:01:12.120Z,24.90
2018-04-08T14:03:39.693Z,24.90
2018-04-08T14:06:07.376Z,24.90
2018-04-08T14:08:34.970Z,24.80
2018-04-08T14:11:03.285Z,24.80
2018-04-08T14:13:30.862Z,24.80
2018-04-08T14:15:58.654Z,24.80
2018-04-08T14:18:26.213Z,24.70
2018-04-08T14:20:53.769Z,24.60
2018-04-08T14:23:22.116Z,24.70
2018-04-08T14:25:49.757Z,24.70
2018-04-08T14:28:17.311Z,24.70
2018-04-08T14:30:44.902Z,24.70
2018-04-08T14:33:12.467Z,24.80
2018-04-08T14:35:40.084Z,24.90
2018-04-08T14:38:07.646Z,24.80
2018-04-08T14:40:35.244Z,24.80
2018-04-08T14:43:02.788Z,24.80
2018-04-08T14:45:30.356Z,24.80
2018-04-08T14:47:57.918Z,24.80
2018-04-08T14:50:25.480Z,24.80
2018-04-08T14:52:53.055Z,24.80
2018-04-08T14:55:20.608Z,24.80
2018-04-08T14:57:48.240Z,24.70
2018-04-08T15:00:15.807Z,24.70
2018-04-08T15:02:43.341Z,24.80
2018-04-08T15:05:10.888Z,24.80
2018-04-08T15:07:39.227Z,24.90
2018-04-08T15:10:06.825Z,24.80
2018-04-08T15:12:35.161Z,25.00
2018-04-08T15:15:02.712Z,24.90
2018-04-08T15:17:30.283Z,24.90
2018-04-08T15:19:57.871Z,24.90
2018-04-08T15:22:25.436Z,24.80
2018-04-08T15:24:53.776Z,24.50
2018-04-08T15:27:21.350Z,24.50
2018-04-08T15:29:48.912Z,24.50
2018-04-08T15:32:17.006Z,24.40
2018-04-08T15:34:44.630Z,24.30
2018-04-08T15:37:12.261Z,24.30
2018-04-08T15:39:39.821Z,24.20
2018-04-08T15:42:07.380Z,24.10
2018-04-08T15:44:34.957Z,23.90
2018-04-08T15:47:02.524Z,23.90
2018-04-08T15:49:30.376Z,23.80
2018-04-08T15:51:57.926Z,23.90
2018-04-08T15:54:25.512Z,24.00
2018-04-08T15:56:53.167Z,23.90
2018-04-08T15:59:20.732Z,23.90
2018-04-08T16:01:48.317Z,23.90
2018-04-08T16:04:15.900Z,24.00
2018-04-08T16:06:44.241Z,24.00
2018-04-08T16:09:11.974Z,24.00
2018-04-08T16:11:39.525Z,23.90
2018-04-08T16:14:07.153Z,23.90
2018-04-08T16:16:34.878Z,24.00
2018-04-08T16:19:02.533Z,24.00
2018-04-08T16:21:30.105Z,24.00
2018-04-08T16:23:57.704Z,24.00
2018-04-08T16:26:25.280Z,23.90
2018-04-08T16:28:53.649Z,23.90
2018-04-08T16:31:21.274Z,23.80
2018-04-08T16:33:48.826Z,23.80
2018-04-08T16:36:16.410Z,23.90
2018-04-08T16:38:43.981Z,23.90
2018-04-08T16:41:11.637Z,23.90
2018-04-08T16:43:40.018Z,23.90
2018-04-08T16:46:07.644Z,23.90
2018-04-08T16:48:35.389Z,23.90
2018-04-08T16:51:02.987Z,23.80
2018-04-08T16:53:30.661Z,23.60
2018-04-08T16:55:58.256Z,23.60
2018-04-08T16:58:26.557Z,23.50
2018-04-08T17:00:54.124Z,23.50
2018-04-08T17:03:22.641Z,23.40
2018-04-08T17:05:50.258Z,23.30
2018-04-08T17:08:17.919Z,23.30
2018-04-08T17:10:45.538Z,23.30
2018-04-08T17:13:13.236Z,23.20
2018-04-08T17:15:40.814Z,23.10
2018-04-08T17:18:08.403Z,23.00
2018-04-08T17:20:35.972Z,22.90
2018-04-08T17:23:03.558Z,22.80
2018-04-08T17:25:31.878Z,22.60
2018-04-08T17:27:59.464Z,22.60
2018-04-08T17:30:27.025Z,22.50
2018-04-08T17:32:54.627Z,22.40
2018-04-08T17:35:22.960Z,22.10
2018-04-08T17:37:50.529Z,22.10
2018-04-08T17:40:18.101Z,22.00
2018-04-08T17:42:45.671Z,21.90
2018-04-08T17:45:13.269Z,21.70
2018-04-08T17:47:40.861Z,21.60
2018-04-08T17:50:08.458Z,21.50
2018-04-08T17:52:36.801Z,21.20
2018-04-08T17:55:04.429Z,21.20
2018-04-08T17:57:32.005Z,21.10
2018-04-08T17:59:59.586Z,20.90
2018-04-08T18:02:27.156Z,20.80
2018-04-08T18:04:54.761Z,20.60
2018-04-08T18:07:22.322Z,20.40
2018-04-08T18:09:49.898Z,20.30
2018-04-08T18:12:17.518Z,20.10
2018-04-08T18:14:45.838Z,19.80
2018-04-08T18:17:14.011Z,19.80
2018-04-08T18:19:41.596Z,19.70
2018-04-08T18:22:09.166Z,19.60
2018-04-08T18:24:36.792Z,19.50
2018-04-08T18:27:04.424Z,19.40
2018-04-08T18:29:32.752Z,19.10
2018-04-08T18:32:00.327Z,19.10
2018-04-08T18:34:27.975Z,19.00
2018-04-08T18:36:55.596Z,18.90
2018-04-08T18:39:23.178Z,18.80
2018-04-08T18:41:50.769Z,18.70
2018-04-08T18:44:19.213Z,18.60
2018-04-08T18:46:46.835Z,18.60
2018-04-08T18:49:15.179Z,18.40
2018-04-08T18:51:43.188Z,18.40
2018-04-08T18:54:11.638Z,18.30
2018-04-08T18:56:39.712Z,18.30
2018-04-08T18:59:07.374Z,18.20
2018-04-08T19:01:35.100Z,18.10
2018-04-08T19:04:02.658Z,18.00
2018-04-08T19:06:30.254Z,18.00
2018-04-08T19:08:58.495Z,17.90
2018-04-08T19:11:26.070Z,17.80
2018-04-08T19:13:53.654Z,17.70
2018-04-08T19:16:21.247Z,17.60
2018-04-08T19:18:49.643Z,17.40
2018-04-08T19:21:17.974Z,17.40
2018-04-08T19:23:48.418Z,17.30
2018-04-08T19:26:15.982Z,17.30
2018-04-08T19:28:43.579Z,17.20
2018-04-08T19:31:11.244Z,17.10
2018-04-08T19:33:38.946Z,17.00
2018-04-08T19:36:06.527Z,17.00
2018-04-08T19:38:34.152Z,16.90
2018-04-08T19:41:01.770Z,16.90
2018-04-08T19:43:30.123Z,16.70
2018-04-08T19:45:57.704Z,16.60
2018-04-08T19:48:26.042Z,16.60
2018-04-08T19:50:53.730Z,16.60
2018-04-08T19:53:22.262Z,16.50
2018-04-08T19:55:50.027Z,16.50
2018-04-08T19:58:17.602Z,16.40
2018-04-08T20:00:45.223Z,16.40
2018-04-08T20:03:12.797Z,16.30
2018-04-08T20:05:40.402Z,16.30
2018-04-08T20:08:07.994Z,16.20
2018-04-08T20:10:36.356Z,16.10
2018-04-08T20:13:04.005Z,16.10
2018-04-08T20:15:31.591Z,16.10
2018-04-08T20:17:59.950Z,16.00
2018-04-08T20:20:27.526Z,16.00
2018-04-08T20:22:55.095Z,16.00
2018-04-08T20:25:23.510Z,15.90
2018-04-08T20:27:51.181Z,15.80
2018-04-08T20:30:18.767Z,15.80
2018-04-08T20:32:46.368Z,15.80
2018-04-08T20:35:13.946Z,15.70
2018-04-08T20:37:41.555Z,15.70
2018-04-08T20:40:09.981Z,15.60
2018-04-08T20:42:37.640Z,15.60
2018-04-08T20:45:05.226Z,15.60
2018-04-08T20:47:32.817Z,15.60
2018-04-08T20:50:00.350Z,15.50
2018-04-08T20:52:27.935Z,15.50
2018-04-08T20:54:55.553Z,15.50
2018-04-08T20:57:23.170Z,15.50
2018-04-08T20:59:50.795Z,15.40
2018-04-08T21:02:18.403Z,15.40
2018-04-08T21:04:46.790Z,15.30
2018-04-08T21:07:15.126Z,15.30
2018-04-08T21:09:42.702Z,15.30
2018-04-08T21:12:10.281Z,15.30
2018-04-08T21:14:38.756Z,15.20
2018-04-08T21:17:06.792Z,15.10
2018-04-08T21:19:34.386Z,15.10
2018-04-08T21:22:02.720Z,15.00
2018-04-08T21:24:30.360Z,15.00
2018-04-08T21:26:57.878Z,14.90
2018-04-08T21:29:25.465Z,14.90
2018-04-08T21:31:53.064Z,14.80
2018-04-08T21:34:20.651Z,14.70
2018-04-08T21:36:48.196Z,14.70
2018-04-08T21:39:15.786Z,14.70
2018-04-08T21:41:43.350Z,14.60
2018-04-08T21:44:10.942Z,14.60
2018-04-08T21:46:38.631Z,14.50
2018-04-08T21:49:06.271Z,14.50
2018-04-08T21:51:33.841Z,14.70
2018-04-08T21:54:01.422Z,14.60
2018-04-08T21:56:28.986Z,14.50
2018-04-08T21:58:56.553Z,14.50
2018-04-08T22:01:24.158Z,14.50
2018-04-08T22:03:51.764Z,14.40
2018-04-08T22:06:19.344Z,14.30
2018-04-08T22:08:46.926Z,14.30
2018-04-08T22:11:15.324Z,14.20
2018-04-08T22:13:42.902Z,14.10
2018-04-08T22:16:10.457Z,14.10
2018-04-08T22:18:38.087Z,14.10
2018-04-08T22:21:05.631Z,14.00
2018-04-08T22:23:33.189Z,14.00
2018-04-08T22:26:00.769Z,13.90
2018-04-08T22:28:29.268Z,13.80
2018-04-08T22:30:56.866Z,13.80
2018-04-08T22:33:24.459Z,13.80
2018-04-08T22:35:52.802Z,13.80
2018-04-08T22:38:20.393Z,13.70
2018-04-08T22:40:49.203Z,13.70
2018-04-08T22:43:16.825Z,13.70
2018-04-08T22:45:44.377Z,13.70
2018-04-08T22:48:11.946Z,13.60
2018-04-08T22:50:39.503Z,13.60
2018-04-08T22:53:07.081Z,13.60
2018-04-08T22:55:34.635Z,13.50
2018-04-08T22:58:02.237Z,13.50
2018-04-08T23:00:29.777Z,13.50
2018-04-08T23:02:58.127Z,13.40
2018-04-08T23:05:25.800Z,13.30
2018-04-08T23:07:53.386Z,13.40
2018-04-08T23:10:21.718Z,13.30
2018-04-08T23:12:49.338Z,13.30
2018-04-08T23:15:16.850Z,13.30
2018-04-08T23:17:44.426Z,13.20
2018-04-08T23:20:12.018Z,13.20
2018-04-08T23:22:39.590Z,13.20
2018-04-08T23:25:07.167Z,13.20
2018-04-08T23:27:34.737Z,13.10
2018-04-08T23:30:02.338Z,13.10
2018-04-08T23:32:30.749Z,13.00
2018-04-08T23:34:58.446Z,13.00
2018-04-08T23:37:26.029Z,13.00
2018-04-08T23:39:53.610Z,13.00
2018-04-08T23:42:21.930Z,12.90
2018-04-08T23:44:49.497Z,12.80
2018-04-08T23:47:17.058Z,12.90
2018-04-08T23:49:44.637Z,12.90
2018-04-08T23:52:12.207Z,12.80
2018-04-08T23:54:39.778Z,12.80
2018-04-08T23:57:08.116Z,12.70
2018-04-08T23:59:35.671Z,12.70
